sensor_id;sensor_type;location;lat;lon;timestamp;P1;durP1;ratioP1;P2;durP2;ratioP2
52942;SDS011;38809;53.300;6.614;2023-04-12T00:00:59;4.60;;;2.20;;
52942;SDS011;38809;53.300;6.614;2023-04-12T00:03:25;4.85;;;2.08;;
52942;SDS011;38809;53.300;6.614;2023-04-12T00:05:51;6.38;;;2.22;;
52942;SDS011;38809;53.300;6.614;2023-04-12T00:08:22;6.82;;;2.78;;
52942;SDS011;38809;53.300;6.614;2023-04-12T00:10:50;6.05;;;2.25;;
52942;SDS011;38809;53.300;6.614;2023-04-12T00:13:16;5.20;;;2.45;;
52942;SDS011;38809;53.300;6.614;2023-04-12T00:15:43;6.05;;;2.17;;
52942;SDS011;38809;53.300;6.614;2023-04-12T00:18:09;6.53;;;2.17;;
52942;SDS011;38809;53.300;6.614;2023-04-12T00:20:35;6.70;;;2.20;;
52942;SDS011;38809;53.300;6.614;2023-04-12T00:23:00;5.13;;;1.50;;
52942;SDS011;38809;53.300;6.614;2023-04-12T00:25:26;7.30;;;1.77;;
52942;SDS011;38809;53.300;6.614;2023-04-12T00:27:52;6.00;;;1.87;;
52942;SDS011;38809;53.300;6.614;2023-04-12T00:30:17;3.53;;;1.60;;
52942;SDS011;38809;53.300;6.614;2023-04-12T00:32:43;5.40;;;1.33;;
52942;SDS011;38809;53.300;6.614;2023-04-12T00:35:09;4.40;;;1.73;;
52942;SDS011;38809;53.300;6.614;2023-04-12T00:37:34;6.53;;;1.27;;
52942;SDS011;38809;53.300;6.614;2023-04-12T00:40:01;6.15;;;1.60;;
52942;SDS011;38809;53.300;6.614;2023-04-12T00:42:27;6.45;;;1.48;;
52942;SDS011;38809;53.300;6.614;2023-04-12T00:44:52;4.17;;;1.40;;
52942;SDS011;38809;53.300;6.614;2023-04-12T00:47:18;6.80;;;1.80;;
52942;SDS011;38809;53.300;6.614;2023-04-12T00:49:44;5.65;;;1.52;;
52942;SDS011;38809;53.300;6.614;2023-04-12T00:52:10;4.68;;;1.38;;
52942;SDS011;38809;53.300;6.614;2023-04-12T00:54:39;3.17;;;1.40;;
52942;SDS011;38809;53.300;6.614;2023-04-12T00:57:07;6.45;;;1.98;;
52942;SDS011;38809;53.300;6.614;2023-04-12T00:59:32;4.70;;;1.63;;
52942;SDS011;38809;53.300;6.614;2023-04-12T01:01:58;4.10;;;1.90;;
52942;SDS011;38809;53.300;6.614;2023-04-12T01:04:25;4.00;;;1.45;;
52942;SDS011;38809;53.300;6.614;2023-04-12T01:12:35;4.07;;;1.70;;
52942;SDS011;38809;53.300;6.614;2023-04-12T01:15:11;5.63;;;1.77;;
52942;SDS011;38809;53.300;6.614;2023-04-12T01:17:42;5.47;;;1.40;;
52942;SDS011;38809;53.300;6.614;2023-04-12T01:20:17;3.33;;;1.40;;
52942;SDS011;38809;53.300;6.614;2023-04-12T01:25:29;7.57;;;1.80;;
52942;SDS011;38809;53.300;6.614;2023-04-12T01:30:38;3.65;;;1.30;;
52942;SDS011;38809;53.300;6.614;2023-04-12T01:33:05;4.38;;;1.60;;
52942;SDS011;38809;53.300;6.614;2023-04-12T01:37:59;4.63;;;1.50;;
52942;SDS011;38809;53.300;6.614;2023-04-12T01:43:08;4.90;;;1.92;;
52942;SDS011;38809;53.300;6.614;2023-04-12T01:45:35;6.40;;;1.60;;
52942;SDS011;38809;53.300;6.614;2023-04-12T01:48:01;5.00;;;1.98;;
52942;SDS011;38809;53.300;6.614;2023-04-12T01:56:12;10.15;;;1.95;;
52942;SDS011;38809;53.300;6.614;2023-04-12T02:03:33;4.25;;;1.65;;
52942;SDS011;38809;53.300;6.614;2023-04-12T02:13:19;5.45;;;1.60;;
52942;SDS011;38809;53.300;6.614;2023-04-12T02:18:10;5.80;;;2.42;;
52942;SDS011;38809;53.300;6.614;2023-04-12T02:20:37;5.47;;;1.80;;
52942;SDS011;38809;53.300;6.614;2023-04-12T02:23:04;5.50;;;1.92;;
52942;SDS011;38809;53.300;6.614;2023-04-12T02:25:30;6.53;;;2.25;;
52942;SDS011;38809;53.300;6.614;2023-04-12T02:30:22;5.68;;;1.77;;
52942;SDS011;38809;53.300;6.614;2023-04-12T02:32:48;4.87;;;1.97;;
52942;SDS011;38809;53.300;6.614;2023-04-12T02:40:08;3.70;;;1.50;;
52942;SDS011;38809;53.300;6.614;2023-04-12T02:42:35;5.32;;;1.75;;
52942;SDS011;38809;53.300;6.614;2023-04-12T02:47:27;3.08;;;1.48;;
52942;SDS011;38809;53.300;6.614;2023-04-12T02:49:54;4.25;;;1.80;;
52942;SDS011;38809;53.300;6.614;2023-04-12T02:52:20;4.03;;;1.70;;
52942;SDS011;38809;53.300;6.614;2023-04-12T02:54:47;6.05;;;2.00;;
52942;SDS011;38809;53.300;6.614;2023-04-12T02:57:14;4.35;;;1.70;;
52942;SDS011;38809;53.300;6.614;2023-04-12T03:06:57;5.05;;;2.22;;
52942;SDS011;38809;53.300;6.614;2023-04-12T03:09:23;6.97;;;2.15;;
52942;SDS011;38809;53.300;6.614;2023-04-12T03:16:43;4.95;;;1.92;;
52942;SDS011;38809;53.300;6.614;2023-04-12T03:19:09;4.22;;;1.73;;
52942;SDS011;38809;53.300;6.614;2023-04-12T03:21:34;2.87;;;1.50;;
52942;SDS011;38809;53.300;6.614;2023-04-12T03:24:01;5.05;;;1.75;;
52942;SDS011;38809;53.300;6.614;2023-04-12T03:26:28;5.88;;;1.80;;
52942;SDS011;38809;53.300;6.614;2023-04-12T03:28:57;6.10;;;2.05;;
52942;SDS011;38809;53.300;6.614;2023-04-12T03:31:33;6.72;;;2.05;;
52942;SDS011;38809;53.300;6.614;2023-04-12T03:33:59;2.53;;;1.50;;
52942;SDS011;38809;53.300;6.614;2023-04-12T03:36:25;6.25;;;1.95;;
52942;SDS011;38809;53.300;6.614;2023-04-12T03:38:51;5.40;;;1.70;;
52942;SDS011;38809;53.300;6.614;2023-04-12T03:43:45;4.35;;;1.35;;
52942;SDS011;38809;53.300;6.614;2023-04-12T03:46:11;4.90;;;1.23;;
52942;SDS011;38809;53.300;6.614;2023-04-12T03:48:39;4.85;;;1.20;;
52942;SDS011;38809;53.300;6.614;2023-04-12T03:51:05;3.10;;;1.48;;
52942;SDS011;38809;53.300;6.614;2023-04-12T03:55:58;3.65;;;1.10;;
52942;SDS011;38809;53.300;6.614;2023-04-12T03:58:24;4.93;;;1.50;;
52942;SDS011;38809;53.300;6.614;2023-04-12T04:00:50;4.13;;;1.40;;
52942;SDS011;38809;53.300;6.614;2023-04-12T04:03:16;3.15;;;1.17;;
52942;SDS011;38809;53.300;6.614;2023-04-12T04:08:08;4.18;;;1.02;;
52942;SDS011;38809;53.300;6.614;2023-04-12T04:10:34;3.42;;;1.10;;
52942;SDS011;38809;53.300;6.614;2023-04-12T04:13:00;4.70;;;1.30;;
52942;SDS011;38809;53.300;6.614;2023-04-12T04:15:25;4.80;;;1.10;;
52942;SDS011;38809;53.300;6.614;2023-04-12T04:17:52;3.60;;;1.20;;
52942;SDS011;38809;53.300;6.614;2023-04-12T04:20:18;4.57;;;1.42;;
52942;SDS011;38809;53.300;6.614;2023-04-12T04:22:44;2.25;;;1.20;;
52942;SDS011;38809;53.300;6.614;2023-04-12T04:25:14;6.70;;;1.20;;
52942;SDS011;38809;53.300;6.614;2023-04-12T04:30:06;5.10;;;1.42;;
52942;SDS011;38809;53.300;6.614;2023-04-12T04:32:32;5.97;;;1.50;;
52942;SDS011;38809;53.300;6.614;2023-04-12T04:34:58;4.27;;;1.60;;
52942;SDS011;38809;53.300;6.614;2023-04-12T04:37:27;4.45;;;1.80;;
52942;SDS011;38809;53.300;6.614;2023-04-12T04:39:54;3.38;;;1.15;;
52942;SDS011;38809;53.300;6.614;2023-04-12T04:44:47;5.55;;;1.75;;
52942;SDS011;38809;53.300;6.614;2023-04-12T04:47:15;3.17;;;1.58;;
52942;SDS011;38809;53.300;6.614;2023-04-12T04:49:42;3.90;;;1.45;;
52942;SDS011;38809;53.300;6.614;2023-04-12T04:52:08;6.07;;;1.80;;
52942;SDS011;38809;53.300;6.614;2023-04-12T04:54:34;4.15;;;1.60;;
52942;SDS011;38809;53.300;6.614;2023-04-12T04:57:00;3.20;;;1.77;;
52942;SDS011;38809;53.300;6.614;2023-04-12T04:59:26;4.20;;;1.40;;
52942;SDS011;38809;53.300;6.614;2023-04-12T05:01:52;2.60;;;1.50;;
52942;SDS011;38809;53.300;6.614;2023-04-12T05:04:17;5.27;;;1.57;;
52942;SDS011;38809;53.300;6.614;2023-04-12T05:06:44;6.87;;;2.00;;
52942;SDS011;38809;53.300;6.614;2023-04-12T05:11:36;7.28;;;1.95;;
52942;SDS011;38809;53.300;6.614;2023-04-12T05:14:01;5.77;;;2.23;;
52942;SDS011;38809;53.300;6.614;2023-04-12T05:18:52;4.82;;;1.63;;
52942;SDS011;38809;53.300;6.614;2023-04-12T05:21:18;7.40;;;2.20;;
52942;SDS011;38809;53.300;6.614;2023-04-12T05:28:36;3.15;;;1.80;;
52942;SDS011;38809;53.300;6.614;2023-04-12T05:31:02;5.07;;;1.87;;
52942;SDS011;38809;53.300;6.614;2023-04-12T05:33:29;4.55;;;2.40;;
52942;SDS011;38809;53.300;6.614;2023-04-12T05:35:55;5.47;;;2.20;;
52942;SDS011;38809;53.300;6.614;2023-04-12T05:38:21;3.85;;;2.38;;
52942;SDS011;38809;53.300;6.614;2023-04-12T05:40:48;3.83;;;2.08;;
52942;SDS011;38809;53.300;6.614;2023-04-12T05:43:16;5.55;;;2.33;;
52942;SDS011;38809;53.300;6.614;2023-04-12T05:45:42;7.50;;;2.50;;
52942;SDS011;38809;53.300;6.614;2023-04-12T05:48:08;4.57;;;2.28;;
52942;SDS011;38809;53.300;6.614;2023-04-12T05:50:34;3.28;;;1.55;;
52942;SDS011;38809;53.300;6.614;2023-04-12T05:53:00;4.57;;;2.17;;
52942;SDS011;38809;53.300;6.614;2023-04-12T05:55:26;8.00;;;2.42;;
52942;SDS011;38809;53.300;6.614;2023-04-12T05:57:55;5.22;;;1.80;;
52942;SDS011;38809;53.300;6.614;2023-04-12T06:00:22;3.45;;;1.98;;
52942;SDS011;38809;53.300;6.614;2023-04-12T06:02:48;3.92;;;1.60;;
52942;SDS011;38809;53.300;6.614;2023-04-12T06:05:14;5.57;;;1.90;;
52942;SDS011;38809;53.300;6.614;2023-04-12T06:07:41;3.67;;;1.90;;
52942;SDS011;38809;53.300;6.614;2023-04-12T06:10:12;6.70;;;2.53;;
52942;SDS011;38809;53.300;6.614;2023-04-12T06:12:38;5.93;;;1.55;;
52942;SDS011;38809;53.300;6.614;2023-04-12T06:15:04;4.13;;;1.93;;
52942;SDS011;38809;53.300;6.614;2023-04-12T06:17:30;3.25;;;1.60;;
52942;SDS011;38809;53.300;6.614;2023-04-12T06:19:56;5.45;;;1.58;;
52942;SDS011;38809;53.300;6.614;2023-04-12T06:22:22;3.13;;;1.33;;
52942;SDS011;38809;53.300;6.614;2023-04-12T06:24:48;5.15;;;1.50;;
52942;SDS011;38809;53.300;6.614;2023-04-12T06:27:13;4.22;;;2.10;;
52942;SDS011;38809;53.300;6.614;2023-04-12T06:29:39;3.38;;;1.55;;
52942;SDS011;38809;53.300;6.614;2023-04-12T06:32:05;5.77;;;1.80;;
52942;SDS011;38809;53.300;6.614;2023-04-12T06:34:31;3.83;;;1.67;;
52942;SDS011;38809;53.300;6.614;2023-04-12T06:39:22;5.45;;;1.77;;
52942;SDS011;38809;53.300;6.614;2023-04-12T06:41:47;4.43;;;1.60;;
52942;SDS011;38809;53.300;6.614;2023-04-12T06:46:40;3.78;;;1.30;;
52942;SDS011;38809;53.300;6.614;2023-04-12T06:49:06;3.33;;;1.70;;
52942;SDS011;38809;53.300;6.614;2023-04-12T06:51:32;2.97;;;1.57;;
52942;SDS011;38809;53.300;6.614;2023-04-12T06:53:59;2.83;;;1.55;;
52942;SDS011;38809;53.300;6.614;2023-04-12T06:56:25;5.68;;;2.05;;
52942;SDS011;38809;53.300;6.614;2023-04-12T06:58:51;3.13;;;1.77;;
52942;SDS011;38809;53.300;6.614;2023-04-12T07:01:17;3.20;;;1.70;;
52942;SDS011;38809;53.300;6.614;2023-04-12T07:03:42;4.85;;;1.80;;
52942;SDS011;38809;53.300;6.614;2023-04-12T07:06:08;5.70;;;2.27;;
52942;SDS011;38809;53.300;6.614;2023-04-12T07:08:34;5.20;;;2.10;;
52942;SDS011;38809;53.300;6.614;2023-04-12T07:11:01;3.65;;;1.88;;
52942;SDS011;38809;53.300;6.614;2023-04-12T07:15:53;3.70;;;1.75;;
52942;SDS011;38809;53.300;6.614;2023-04-12T07:23:11;3.53;;;1.63;;
52942;SDS011;38809;53.300;6.614;2023-04-12T07:25:37;4.83;;;1.70;;
52942;SDS011;38809;53.300;6.614;2023-04-12T07:28:03;4.50;;;1.73;;
52942;SDS011;38809;53.300;6.614;2023-04-12T07:30:29;6.63;;;2.20;;
52942;SDS011;38809;53.300;6.614;2023-04-12T07:32:55;5.20;;;2.00;;
52942;SDS011;38809;53.300;6.614;2023-04-12T07:35:21;3.65;;;1.48;;
52942;SDS011;38809;53.300;6.614;2023-04-12T07:37:46;5.03;;;2.28;;
52942;SDS011;38809;53.300;6.614;2023-04-12T07:40:12;4.43;;;1.60;;
52942;SDS011;38809;53.300;6.614;2023-04-12T07:42:38;2.70;;;1.60;;
52942;SDS011;38809;53.300;6.614;2023-04-12T07:45:04;5.53;;;2.03;;
52942;SDS011;38809;53.300;6.614;2023-04-12T07:47:30;5.97;;;2.35;;
52942;SDS011;38809;53.300;6.614;2023-04-12T07:49:56;6.40;;;2.15;;
52942;SDS011;38809;53.300;6.614;2023-04-12T07:52:23;3.22;;;1.83;;
52942;SDS011;38809;53.300;6.614;2023-04-12T07:54:49;3.40;;;1.73;;
52942;SDS011;38809;53.300;6.614;2023-04-12T07:57:15;5.05;;;2.00;;
52942;SDS011;38809;53.300;6.614;2023-04-12T07:59:40;3.80;;;1.73;;
52942;SDS011;38809;53.300;6.614;2023-04-12T08:02:06;4.13;;;1.80;;
52942;SDS011;38809;53.300;6.614;2023-04-12T08:04:32;3.13;;;1.70;;
52942;SDS011;38809;53.300;6.614;2023-04-12T08:06:57;4.23;;;1.70;;
52942;SDS011;38809;53.300;6.614;2023-04-12T08:09:23;4.73;;;2.00;;
52942;SDS011;38809;53.300;6.614;2023-04-12T08:11:49;2.63;;;1.50;;
52942;SDS011;38809;53.300;6.614;2023-04-12T08:14:15;2.90;;;1.35;;
52942;SDS011;38809;53.300;6.614;2023-04-12T08:16:40;4.57;;;1.53;;
52942;SDS011;38809;53.300;6.614;2023-04-12T08:19:06;4.82;;;1.60;;
52942;SDS011;38809;53.300;6.614;2023-04-12T08:21:32;2.50;;;1.77;;
52942;SDS011;38809;53.300;6.614;2023-04-12T08:23:58;2.47;;;1.42;;
52942;SDS011;38809;53.300;6.614;2023-04-12T08:26:24;3.17;;;1.63;;
52942;SDS011;38809;53.300;6.614;2023-04-12T08:28:50;1.92;;;1.33;;
52942;SDS011;38809;53.300;6.614;2023-04-12T08:31:16;1.88;;;1.23;;
52942;SDS011;38809;53.300;6.614;2023-04-12T08:33:42;1.90;;;1.40;;
52942;SDS011;38809;53.300;6.614;2023-04-12T08:36:08;2.95;;;1.40;;
52942;SDS011;38809;53.300;6.614;2023-04-12T08:38:35;4.18;;;1.58;;
52942;SDS011;38809;53.300;6.614;2023-04-12T08:41:04;2.28;;;1.55;;
52942;SDS011;38809;53.300;6.614;2023-04-12T08:43:30;2.17;;;1.38;;
52942;SDS011;38809;53.300;6.614;2023-04-12T08:45:57;3.03;;;1.42;;
52942;SDS011;38809;53.300;6.614;2023-04-12T08:48:24;2.67;;;1.40;;
52942;SDS011;38809;53.300;6.614;2023-04-12T08:50:51;2.55;;;1.70;;
52942;SDS011;38809;53.300;6.614;2023-04-12T08:53:17;2.65;;;1.48;;
52942;SDS011;38809;53.300;6.614;2023-04-12T08:55:45;3.27;;;1.70;;
52942;SDS011;38809;53.300;6.614;2023-04-12T08:58:14;2.85;;;1.52;;
52942;SDS011;38809;53.300;6.614;2023-04-12T09:00:41;2.60;;;1.30;;
52942;SDS011;38809;53.300;6.614;2023-04-12T09:03:08;2.80;;;1.60;;
52942;SDS011;38809;53.300;6.614;2023-04-12T09:05:36;2.70;;;1.80;;
52942;SDS011;38809;53.300;6.614;2023-04-12T09:08:02;2.83;;;1.60;;
52942;SDS011;38809;53.300;6.614;2023-04-12T09:10:37;2.58;;;1.70;;
52942;SDS011;38809;53.300;6.614;2023-04-12T09:13:04;2.40;;;1.67;;
52942;SDS011;38809;53.300;6.614;2023-04-12T09:15:30;3.05;;;1.90;;
52942;SDS011;38809;53.300;6.614;2023-04-12T09:18:04;3.40;;;1.73;;
52942;SDS011;38809;53.300;6.614;2023-04-12T09:20:34;2.47;;;1.77;;
52942;SDS011;38809;53.300;6.614;2023-04-12T09:23:15;4.13;;;2.80;;
52942;SDS011;38809;53.300;6.614;2023-04-12T09:25:42;9.77;;;5.90;;
52942;SDS011;38809;53.300;6.614;2023-04-12T09:30:51;4.10;;;2.40;;
52942;SDS011;38809;53.300;6.614;2023-04-12T09:33:18;4.75;;;3.15;;
52942;SDS011;38809;53.300;6.614;2023-04-12T09:35:46;2.70;;;2.20;;
52942;SDS011;38809;53.300;6.614;2023-04-12T09:38:12;4.43;;;2.47;;
52942;SDS011;38809;53.300;6.614;2023-04-12T09:40:38;4.45;;;2.63;;
52942;SDS011;38809;53.300;6.614;2023-04-12T09:43:05;2.78;;;2.33;;
52942;SDS011;38809;53.300;6.614;2023-04-12T09:45:38;5.45;;;2.42;;
52942;SDS011;38809;53.300;6.614;2023-04-12T09:48:03;3.47;;;2.30;;
52942;SDS011;38809;53.300;6.614;2023-04-12T09:50:31;2.65;;;2.35;;
52942;SDS011;38809;53.300;6.614;2023-04-12T09:53:00;3.00;;;2.20;;
52942;SDS011;38809;53.300;6.614;2023-04-12T09:55:29;3.25;;;2.20;;
52942;SDS011;38809;53.300;6.614;2023-04-12T09:57:56;3.28;;;2.50;;
52942;SDS011;38809;53.300;6.614;2023-04-12T10:00:26;3.47;;;2.90;;
52942;SDS011;38809;53.300;6.614;2023-04-12T10:02:54;3.13;;;2.72;;
52942;SDS011;38809;53.300;6.614;2023-04-12T10:05:20;3.88;;;2.70;;
52942;SDS011;38809;53.300;6.614;2023-04-12T10:07:50;4.05;;;2.92;;
52942;SDS011;38809;53.300;6.614;2023-04-12T10:10:16;3.38;;;2.72;;
52942;SDS011;38809;53.300;6.614;2023-04-12T10:12:44;4.15;;;3.20;;
52942;SDS011;38809;53.300;6.614;2023-04-12T10:15:11;3.58;;;3.10;;
52942;SDS011;38809;53.300;6.614;2023-04-12T10:20:14;5.45;;;3.15;;
52942;SDS011;38809;53.300;6.614;2023-04-12T10:22:41;4.40;;;3.35;;
52942;SDS011;38809;53.300;6.614;2023-04-12T10:25:18;3.50;;;3.20;;
52942;SDS011;38809;53.300;6.614;2023-04-12T10:27:45;3.90;;;3.33;;
52942;SDS011;38809;53.300;6.614;2023-04-12T10:32:45;4.35;;;3.03;;
52942;SDS011;38809;53.300;6.614;2023-04-12T10:40:25;5.05;;;3.10;;
52942;SDS011;38809;53.300;6.614;2023-04-12T10:45:52;6.03;;;3.65;;
52942;SDS011;38809;53.300;6.614;2023-04-12T10:53:52;4.47;;;3.05;;
52942;SDS011;38809;53.300;6.614;2023-04-12T10:56:38;4.93;;;3.15;;
52942;SDS011;38809;53.300;6.614;2023-04-12T10:59:06;6.75;;;2.90;;
52942;SDS011;38809;53.300;6.614;2023-04-12T11:01:32;5.72;;;3.00;;
52942;SDS011;38809;53.300;6.614;2023-04-12T11:11:44;3.90;;;2.70;;
52942;SDS011;38809;53.300;6.614;2023-04-12T11:14:11;6.68;;;2.30;;
52942;SDS011;38809;53.300;6.614;2023-04-12T11:19:30;5.63;;;2.40;;
52942;SDS011;38809;53.300;6.614;2023-04-12T11:22:04;5.10;;;2.05;;
52942;SDS011;38809;53.300;6.614;2023-04-12T11:24:31;4.53;;;1.85;;
52942;SDS011;38809;53.300;6.614;2023-04-12T11:26:57;6.40;;;2.17;;
52942;SDS011;38809;53.300;6.614;2023-04-12T11:29:27;5.60;;;2.10;;
52942;SDS011;38809;53.300;6.614;2023-04-12T11:31:53;4.35;;;2.20;;
52942;SDS011;38809;53.300;6.614;2023-04-12T11:34:20;6.63;;;2.45;;
52942;SDS011;38809;53.300;6.614;2023-04-12T11:36:46;6.10;;;2.30;;
52942;SDS011;38809;53.300;6.614;2023-04-12T11:39:16;8.32;;;2.45;;
52942;SDS011;38809;53.300;6.614;2023-04-12T11:41:46;5.05;;;2.05;;
52942;SDS011;38809;53.300;6.614;2023-04-12T11:44:12;8.50;;;2.40;;
52942;SDS011;38809;53.300;6.614;2023-04-12T11:46:43;6.05;;;2.80;;
52942;SDS011;38809;53.300;6.614;2023-04-12T11:49:15;7.82;;;2.40;;
52942;SDS011;38809;53.300;6.614;2023-04-12T11:51:42;6.03;;;2.25;;
52942;SDS011;38809;53.300;6.614;2023-04-12T11:54:08;5.43;;;2.35;;
52942;SDS011;38809;53.300;6.614;2023-04-12T11:56:35;7.13;;;2.90;;
52942;SDS011;38809;53.300;6.614;2023-04-12T12:01:27;6.55;;;2.45;;
52942;SDS011;38809;53.300;6.614;2023-04-12T12:03:54;3.83;;;2.15;;
52942;SDS011;38809;53.300;6.614;2023-04-12T12:06:20;7.03;;;2.20;;
52942;SDS011;38809;53.300;6.614;2023-04-12T12:08:50;5.93;;;2.30;;
52942;SDS011;38809;53.300;6.614;2023-04-12T12:11:19;6.25;;;2.10;;
52942;SDS011;38809;53.300;6.614;2023-04-12T12:13:49;8.15;;;2.33;;
52942;SDS011;38809;53.300;6.614;2023-04-12T12:16:23;3.78;;;1.92;;
52942;SDS011;38809;53.300;6.614;2023-04-12T12:18:53;3.92;;;2.35;;
52942;SDS011;38809;53.300;6.614;2023-04-12T12:21:19;5.68;;;2.10;;
52942;SDS011;38809;53.300;6.614;2023-04-12T12:23:45;9.20;;;2.25;;
52942;SDS011;38809;53.300;6.614;2023-04-12T12:26:25;5.70;;;1.60;;
52942;SDS011;38809;53.300;6.614;2023-04-12T12:28:53;6.07;;;1.50;;
52942;SDS011;38809;53.300;6.614;2023-04-12T12:31:23;8.38;;;1.90;;
52942;SDS011;38809;53.300;6.614;2023-04-12T12:33:55;7.45;;;1.70;;
52942;SDS011;38809;53.300;6.614;2023-04-12T12:36:32;7.70;;;1.90;;
52942;SDS011;38809;53.300;6.614;2023-04-12T12:39:06;6.35;;;1.90;;
52942;SDS011;38809;53.300;6.614;2023-04-12T12:41:34;8.13;;;1.85;;
52942;SDS011;38809;53.300;6.614;2023-04-12T12:44:00;4.80;;;1.70;;
52942;SDS011;38809;53.300;6.614;2023-04-12T12:46:26;7.65;;;1.60;;
52942;SDS011;38809;53.300;6.614;2023-04-12T12:48:52;12.70;;;2.28;;
52942;SDS011;38809;53.300;6.614;2023-04-12T12:51:18;10.63;;;2.08;;
52942;SDS011;38809;53.300;6.614;2023-04-12T12:53:44;8.15;;;2.05;;
52942;SDS011;38809;53.300;6.614;2023-04-12T12:56:10;6.38;;;1.92;;
52942;SDS011;38809;53.300;6.614;2023-04-12T12:58:37;8.15;;;1.80;;
52942;SDS011;38809;53.300;6.614;2023-04-12T13:01:04;7.82;;;1.80;;
52942;SDS011;38809;53.300;6.614;2023-04-12T13:03:30;7.60;;;1.65;;
52942;SDS011;38809;53.300;6.614;2023-04-12T13:05:56;6.55;;;1.98;;
52942;SDS011;38809;53.300;6.614;2023-04-12T13:08:22;10.88;;;2.15;;
52942;SDS011;38809;53.300;6.614;2023-04-12T13:10:48;7.18;;;1.77;;
52942;SDS011;38809;53.300;6.614;2023-04-12T13:13:14;8.35;;;1.60;;
52942;SDS011;38809;53.300;6.614;2023-04-12T13:15:40;6.35;;;1.65;;
52942;SDS011;38809;53.300;6.614;2023-04-12T13:18:06;10.48;;;2.38;;
52942;SDS011;38809;53.300;6.614;2023-04-12T13:20:32;6.32;;;1.70;;
52942;SDS011;38809;53.300;6.614;2023-04-12T13:22:58;6.90;;;1.83;;
52942;SDS011;38809;53.300;6.614;2023-04-12T13:27:50;7.80;;;1.95;;
52942;SDS011;38809;53.300;6.614;2023-04-12T13:30:19;6.47;;;1.98;;
52942;SDS011;38809;53.300;6.614;2023-04-12T13:32:45;9.00;;;2.53;;
52942;SDS011;38809;53.300;6.614;2023-04-12T13:35:11;6.95;;;1.83;;
52942;SDS011;38809;53.300;6.614;2023-04-12T13:37:37;7.50;;;1.60;;
52942;SDS011;38809;53.300;6.614;2023-04-12T13:40:03;4.85;;;1.80;;
52942;SDS011;38809;53.300;6.614;2023-04-12T13:42:29;6.10;;;1.50;;
52942;SDS011;38809;53.300;6.614;2023-04-12T13:44:55;9.98;;;2.05;;
52942;SDS011;38809;53.300;6.614;2023-04-12T13:47:21;4.80;;;1.48;;
52942;SDS011;38809;53.300;6.614;2023-04-12T13:49:47;6.18;;;1.42;;
52942;SDS011;38809;53.300;6.614;2023-04-12T13:52:13;9.18;;;1.75;;
52942;SDS011;38809;53.300;6.614;2023-04-12T13:54:39;5.85;;;1.70;;
52942;SDS011;38809;53.300;6.614;2023-04-12T13:57:07;9.32;;;1.85;;
52942;SDS011;38809;53.300;6.614;2023-04-12T13:59:33;6.55;;;1.90;;
52942;SDS011;38809;53.300;6.614;2023-04-12T14:01:59;6.20;;;1.83;;
52942;SDS011;38809;53.300;6.614;2023-04-12T14:04:29;5.28;;;1.63;;
52942;SDS011;38809;53.300;6.614;2023-04-12T14:06:55;8.80;;;1.52;;
52942;SDS011;38809;53.300;6.614;2023-04-12T14:09:25;8.88;;;1.95;;
52942;SDS011;38809;53.300;6.614;2023-04-12T14:11:55;10.35;;;1.85;;
52942;SDS011;38809;53.300;6.614;2023-04-12T14:14:24;3.15;;;1.17;;
52942;SDS011;38809;53.300;6.614;2023-04-12T14:16:52;7.70;;;1.38;;
52942;SDS011;38809;53.300;6.614;2023-04-12T14:19:21;4.85;;;1.50;;
52942;SDS011;38809;53.300;6.614;2023-04-12T14:21:47;9.77;;;1.30;;
52942;SDS011;38809;53.300;6.614;2023-04-12T14:24:14;6.05;;;1.15;;
52942;SDS011;38809;53.300;6.614;2023-04-12T14:26:41;6.30;;;1.33;;
52942;SDS011;38809;53.300;6.614;2023-04-12T14:29:06;6.63;;;1.77;;
52942;SDS011;38809;53.300;6.614;2023-04-12T14:31:33;5.95;;;1.33;;
52942;SDS011;38809;53.300;6.614;2023-04-12T14:34:00;5.05;;;1.17;;
52942;SDS011;38809;53.300;6.614;2023-04-12T14:36:26;5.05;;;1.30;;
52942;SDS011;38809;53.300;6.614;2023-04-12T14:38:52;3.05;;;1.00;;
52942;SDS011;38809;53.300;6.614;2023-04-12T14:41:18;3.38;;;0.90;;
52942;SDS011;38809;53.300;6.614;2023-04-12T14:43:44;4.68;;;1.10;;
52942;SDS011;38809;53.300;6.614;2023-04-12T14:46:10;3.20;;;1.08;;
52942;SDS011;38809;53.300;6.614;2023-04-12T14:48:36;5.97;;;1.17;;
52942;SDS011;38809;53.300;6.614;2023-04-12T14:51:02;3.47;;;0.98;;
52942;SDS011;38809;53.300;6.614;2023-04-12T14:53:28;3.70;;;1.05;;
52942;SDS011;38809;53.300;6.614;2023-04-12T14:55:55;3.47;;;1.00;;
52942;SDS011;38809;53.300;6.614;2023-04-12T14:58:20;5.10;;;1.20;;
52942;SDS011;38809;53.300;6.614;2023-04-12T15:00:46;5.00;;;1.47;;
52942;SDS011;38809;53.300;6.614;2023-04-12T15:03:12;7.63;;;1.50;;
52942;SDS011;38809;53.300;6.614;2023-04-12T15:05:39;5.70;;;1.15;;
52942;SDS011;38809;53.300;6.614;2023-04-12T15:08:05;4.43;;;1.35;;
52942;SDS011;38809;53.300;6.614;2023-04-12T15:10:30;5.45;;;1.50;;
52942;SDS011;38809;53.300;6.614;2023-04-12T15:12:56;3.58;;;1.05;;
52942;SDS011;38809;53.300;6.614;2023-04-12T15:15:22;4.13;;;1.20;;
52942;SDS011;38809;53.300;6.614;2023-04-12T15:17:48;4.25;;;1.10;;
52942;SDS011;38809;53.300;6.614;2023-04-12T15:20:14;4.18;;;1.23;;
52942;SDS011;38809;53.300;6.614;2023-04-12T15:22:41;4.25;;;1.27;;
52942;SDS011;38809;53.300;6.614;2023-04-12T15:27:34;6.07;;;1.75;;
52942;SDS011;38809;53.300;6.614;2023-04-12T15:30:01;5.82;;;1.27;;
52942;SDS011;38809;53.300;6.614;2023-04-12T15:32:29;4.18;;;1.08;;
52942;SDS011;38809;53.300;6.614;2023-04-12T15:34:57;3.85;;;1.00;;
52942;SDS011;38809;53.300;6.614;2023-04-12T15:37:24;7.30;;;1.40;;
52942;SDS011;38809;53.300;6.614;2023-04-12T15:39:50;3.90;;;1.05;;
52942;SDS011;38809;53.300;6.614;2023-04-12T15:42:17;4.65;;;1.15;;
52942;SDS011;38809;53.300;6.614;2023-04-12T15:44:43;3.67;;;1.40;;
52942;SDS011;38809;53.300;6.614;2023-04-12T15:47:09;4.72;;;1.35;;
52942;SDS011;38809;53.300;6.614;2023-04-12T15:49:36;6.03;;;1.20;;
52942;SDS011;38809;53.300;6.614;2023-04-12T15:52:02;6.95;;;1.65;;
52942;SDS011;38809;53.300;6.614;2023-04-12T15:54:28;7.10;;;1.40;;
52942;SDS011;38809;53.300;6.614;2023-04-12T15:56:54;5.47;;;1.30;;
52942;SDS011;38809;53.300;6.614;2023-04-12T15:59:20;4.97;;;1.42;;
52942;SDS011;38809;53.300;6.614;2023-04-12T16:01:46;5.15;;;1.30;;
52942;SDS011;38809;53.300;6.614;2023-04-12T16:04:15;5.43;;;1.30;;
52942;SDS011;38809;53.300;6.614;2023-04-12T16:09:08;4.97;;;0.90;;
52942;SDS011;38809;53.300;6.614;2023-04-12T16:11:36;6.47;;;1.50;;
52942;SDS011;38809;53.300;6.614;2023-04-12T16:14:02;3.72;;;1.05;;
52942;SDS011;38809;53.300;6.614;2023-04-12T16:16:28;3.80;;;1.30;;
52942;SDS011;38809;53.300;6.614;2023-04-12T16:18:53;3.17;;;1.15;;
52942;SDS011;38809;53.300;6.614;2023-04-12T16:21:20;3.50;;;0.83;;
52942;SDS011;38809;53.300;6.614;2023-04-12T16:23:48;5.45;;;1.23;;
52942;SDS011;38809;53.300;6.614;2023-04-12T16:26:18;4.82;;;1.20;;
52942;SDS011;38809;53.300;6.614;2023-04-12T16:28:45;4.22;;;0.90;;
52942;SDS011;38809;53.300;6.614;2023-04-12T16:31:17;5.63;;;1.58;;
52942;SDS011;38809;53.300;6.614;2023-04-12T16:33:45;3.78;;;0.98;;
52942;SDS011;38809;53.300;6.614;2023-04-12T16:36:12;4.75;;;1.25;;
52942;SDS011;38809;53.300;6.614;2023-04-12T16:38:38;3.88;;;1.10;;
52942;SDS011;38809;53.300;6.614;2023-04-12T16:41:03;4.95;;;1.23;;
52942;SDS011;38809;53.300;6.614;2023-04-12T16:43:29;5.55;;;1.63;;
52942;SDS011;38809;53.300;6.614;2023-04-12T16:45:55;3.92;;;1.10;;
52942;SDS011;38809;53.300;6.614;2023-04-12T16:48:20;4.20;;;1.02;;
52942;SDS011;38809;53.300;6.614;2023-04-12T16:50:47;3.38;;;1.05;;
52942;SDS011;38809;53.300;6.614;2023-04-12T16:53:13;4.93;;;1.20;;
52942;SDS011;38809;53.300;6.614;2023-04-12T16:55:43;4.03;;;1.05;;
52942;SDS011;38809;53.300;6.614;2023-04-12T16:58:13;7.28;;;1.13;;
52942;SDS011;38809;53.300;6.614;2023-04-12T17:03:07;4.50;;;0.98;;